Time;durP1;ratioP1;P1;durP2;ratioP2;P2;SDS_P1;SDS_P2;PMS_P1;PMS_P2;Temp;Humidity;BMP_temperature;BMP_pressure;BME280_temperature;BME280_humidity;BME280_pressure;Samples;Min_cycle;Max_cycle;Signal;HPM_P1;HPM_P2
2023/08/26 00:00:48;;;;;;;10.87;9.97;;;;;;;22.39;70.16;95680.72;5086778;28;20632;-69
2023/08/26 00:03:14;;;;;;;14.50;8.00;;;;;;;22.42;69.92;95677.75;5087197;28;20174;-69
2023/08/26 00:05:41;;;;;;;10.30;8.77;;;;;;;22.42;69.67;95685.78;5087084;28;20265;-68
2023/08/26 00:08:06;;;;;;;14.77;8.80;;;;;;;22.49;69.53;95694.84;5087314;28;20422;-67
2023/08/26 00:10:31;;;;;;;11.33;9.17;;;;;;;22.56;69.19;95703.06;5087028;28;20933;-69
2023/08/26 00:12:57;;;;;;;12.07;9.10;;;;;;;22.57;68.91;95710.94;5087425;28;20201;-69
2023/08/26 00:15:22;;;;;;;9.23;8.43;;;;;;;22.38;68.88;95721.84;5087164;28;20170;-69
2023/08/26 00:17:48;;;;;;;9.40;8.50;;;;;;;22.50;68.57;95730.44;5086946;28;20205;-69
2023/08/26 00:20:14;;;;;;;10.40;9.00;;;;;;;22.53;68.69;95741.66;5086666;28;20264;-68
2023/08/26 00:22:40;;;;;;;10.43;9.27;;;;;;;22.59;69.05;95761.59;5087234;28;20189;-70
2023/08/26 00:25:06;;;;;;;12.70;10.13;;;;;;;22.44;69.82;95758.66;5087423;28;20396;-70
2023/08/26 00:27:31;;;;;;;12.50;9.77;;;;;;;22.40;70.29;95765.31;5087077;28;20525;-69
2023/08/26 00:29:57;;;;;;;11.20;9.70;;;;;;;22.48;69.77;95770.69;5086862;28;20423;-68
2023/08/26 00:32:22;;;;;;;10.80;9.70;;;;;;;22.55;69.70;95755.69;5086903;28;20242;-68
2023/08/26 00:34:47;;;;;;;11.73;10.00;;;;;;;22.55;69.59;95750.34;5087175;28;20169;-67
2023/08/26 00:37:13;;;;;;;11.50;10.37;;;;;;;22.60;69.68;95748.03;5086975;28;20169;-70
2023/08/26 00:39:39;;;;;;;12.70;10.90;;;;;;;22.49;70.30;95734.97;5086701;28;20192;-70
2023/08/26 00:42:04;;;;;;;12.77;11.50;;;;;;;22.57;70.19;95745.69;5086628;28;20205;-69
2023/08/26 00:44:30;;;;;;;12.73;11.53;;;;;;;22.59;69.83;95750.91;5086855;28;20169;-70
2023/08/26 00:46:56;;;;;;;11.27;10.20;;;;;;;22.60;69.88;95755.22;5086999;28;20165;-69
2023/08/26 00:49:23;;;;;;;12.10;10.93;;;;;;;22.58;69.96;95749.19;5086753;28;20162;-68
2023/08/26 00:51:49;;;;;;;12.20;10.63;;;;;;;22.49;70.42;95750.13;5090129;28;20514;-68
2023/08/26 00:54:15;;;;;;;11.43;10.20;;;;;;;22.58;70.17;95766.09;5090612;28;20854;-70
2023/08/26 00:56:40;;;;;;;20.90;11.40;;;;;;;22.60;70.06;95780.13;5090823;28;20411;-68
2023/08/26 00:59:06;;;;;;;13.90;10.90;;;;;;;22.62;70.19;95785.34;5089275;28;20181;-69
2023/08/26 01:01:32;;;;;;;13.50;12.10;;;;;;;22.59;70.33;95777.63;5090896;28;20698;-67
2023/08/26 01:03:58;;;;;;;12.20;10.90;;;;;;;22.67;69.96;95768.81;5090701;28;20184;-69
2023/08/26 01:06:23;;;;;;;12.93;11.63;;;;;;;22.56;70.58;95754.72;5090435;28;20962;-69
2023/08/26 01:08:49;;;;;;;12.33;11.13;;;;;;;22.55;70.34;95758.38;5090380;28;20731;-68
2023/08/26 01:11:28;;;;;;;13.97;11.70;;;;;;;22.69;69.91;95758.81;5090604;28;20740;-71
2023/08/26 01:14:31;;;;;;;14.67;11.97;;;;;;;22.60;70.01;95763.25;5090545;28;20407;-69
2023/08/26 01:16:57;;;;;;;13.20;11.67;;;;;;;22.49;70.13;95772.41;5090360;28;20831;-68
2023/08/26 01:19:33;;;;;;;13.30;11.13;;;;;;;22.49;70.21;95767.03;5090219;28;20492;-68
2023/08/26 01:22:04;;;;;;;12.03;10.83;;;;;;;22.47;69.87;95763.69;5089987;28;20201;-69
2023/08/26 01:24:30;;;;;;;12.90;11.60;;;;;;;22.46;69.71;95762.00;5090251;28;20410;-70
2023/08/26 01:26:56;;;;;;;13.33;10.80;;;;;;;22.53;69.50;95762.22;5090007;28;20418;-68
2023/08/26 01:29:22;;;;;;;11.60;10.60;;;;;;;22.59;69.36;95781.16;5089673;28;20396;-69
2023/08/26 01:31:56;;;;;;;16.97;11.30;;;;;;;22.60;69.65;95803.38;5089720;28;20276;-70
2023/08/26 01:34:27;;;;;;;12.17;10.97;;;;;;;22.61;69.70;95795.19;5089708;28;20226;-71
2023/08/26 01:36:55;;;;;;;14.83;12.33;;;;;;;22.62;69.94;95804.88;5089678;28;20403;-70
2023/08/26 01:39:21;;;;;;;15.10;10.90;;;;;;;22.58;70.34;95803.53;5089502;28;20532;-72
2023/08/26 01:41:50;;;;;;;13.53;12.10;;;;;;;22.57;70.79;95790.31;5089487;28;20546;-69
2023/08/26 01:44:16;;;;;;;15.90;12.10;;;;;;;22.57;70.82;95793.81;5089584;28;20692;-70
2023/08/26 01:46:43;;;;;;;15.20;11.83;;;;;;;22.57;70.64;95791.16;5089531;28;20407;-69
2023/08/26 01:49:08;;;;;;;14.33;10.70;;;;;;;22.53;70.73;95784.44;5089407;28;20491;-69
2023/08/26 01:51:33;;;;;;;14.17;11.03;;;;;;;22.47;71.14;95793.09;5089421;28;21072;-69
2023/08/26 01:53:59;;;;;;;15.87;12.20;;;;;;;22.45;71.01;95792.41;5089668;28;20247;-69
2023/08/26 01:56:24;;;;;;;14.67;11.87;;;;;;;22.49;70.96;95780.41;5089211;28;20200;-71
2023/08/26 01:58:50;;;;;;;13.27;11.33;;;;;;;22.42;71.29;95776.69;5089110;28;20250;-69
2023/08/26 02:01:15;;;;;;;16.07;12.20;;;;;;;22.36;71.85;95777.28;5088885;28;20266;-68
2023/08/26 02:03:40;;;;;;;13.83;11.63;;;;;;;22.39;71.79;95782.31;5088861;28;20174;-68
2023/08/26 02:06:06;;;;;;;15.03;11.57;;;;;;;22.45;71.57;95791.56;5089410;28;20197;-68
2023/08/26 02:08:31;;;;;;;14.17;11.60;;;;;;;22.51;71.38;95791.78;5089093;28;20173;-69
2023/08/26 02:10:56;;;;;;;20.57;12.97;;;;;;;22.48;71.33;95800.09;5088623;28;20238;-68
2023/08/26 02:13:25;;;;;;;14.67;12.47;;;;;;;22.47;71.99;95794.94;5088947;28;20252;-69
2023/08/26 02:15:51;;;;;;;12.83;11.40;;;;;;;22.40;72.00;95784.03;5088904;28;20169;-69
2023/08/26 02:18:17;;;;;;;14.97;13.33;;;;;;;22.39;72.21;95775.16;5088622;28;20472;-69
2023/08/26 02:20:43;;;;;;;14.43;11.90;;;;;;;22.50;71.76;95765.19;5088435;28;20251;-69
2023/08/26 02:23:11;;;;;;;12.83;11.50;;;;;;;22.47;72.04;95785.06;5089016;28;20743;-68
2023/08/26 02:25:38;;;;;;;12.37;11.10;;;;;;;22.47;72.05;95789.59;5088973;28;20207;-68
2023/08/26 02:28:04;;;;;;;14.87;12.57;;;;;;;22.44;72.31;95789.88;5088599;28;21180;-69
2023/08/26 02:30:29;;;;;;;14.80;11.97;;;;;;;22.41;72.36;95786.50;5088341;28;20535;-70
2023/08/26 02:32:55;;;;;;;13.73;12.43;;;;;;;22.40;72.51;95792.03;5088583;28;20558;-70
2023/08/26 02:35:20;;;;;;;12.57;11.27;;;;;;;22.36;72.58;95799.50;5088832;28;20910;-70
2023/08/26 02:37:45;;;;;;;17.27;12.80;;;;;;;22.32;72.81;95808.00;5088527;28;20212;-70
2023/08/26 02:40:11;;;;;;;15.77;12.33;;;;;;;22.28;72.75;95807.47;5088199;28;20575;-69
2023/08/26 02:42:36;;;;;;;13.50;10.60;;;;;;;22.29;72.50;95817.16;5088857;28;20172;-69
2023/08/26 02:45:03;;;;;;;12.40;9.90;;;;;;;22.26;72.07;95812.13;5089155;28;20575;-69
2023/08/26 02:47:28;;;;;;;11.27;10.23;;;;;;;22.26;71.28;95814.81;5094598;28;20180;-68
2023/08/26 02:49:54;;;;;;;14.33;9.83;;;;;;;22.29;71.10;95814.50;5114172;28;20679;-69
2023/08/26 02:52:19;;;;;;;11.67;10.67;;;;;;;22.18;71.35;95801.31;5113919;28;20200;-70
2023/08/26 02:54:44;;;;;;;11.50;9.83;;;;;;;22.22;70.76;95812.59;5102562;28;20226;-70
2023/08/26 02:57:10;;;;;;;8.57;7.77;;;;;;;22.10;71.12;95815.47;5098600;28;20181;-69
2023/08/26 02:59:35;;;;;;;8.63;7.83;;;;;;;22.13;70.81;95825.84;5096612;28;20606;-69
2023/08/26 03:02:03;;;;;;;10.50;8.70;;;;;;;22.18;70.59;95834.25;5091497;28;20205;-69
2023/08/26 03:04:29;;;;;;;9.63;7.73;;;;;;;22.16;70.42;95822.03;5090659;28;20634;-70
2023/08/26 03:06:54;;;;;;;9.83;8.60;;;;;;;22.08;70.55;95817.44;5091057;28;20411;-70
2023/08/26 03:09:20;;;;;;;9.57;8.60;;;;;;;21.89;71.88;95823.78;5090011;28;20484;-70
2023/08/26 03:11:45;;;;;;;12.00;8.97;;;;;;;21.92;71.96;95839.53;5088828;28;20225;-68
2023/08/26 03:14:10;;;;;;;10.27;9.20;;;;;;;21.92;72.05;95841.31;5090760;28;20227;-70
2023/08/26 03:16:36;;;;;;;10.43;9.30;;;;;;;21.98;71.74;95849.59;5087862;28;20170;-68
2023/08/26 03:19:02;;;;;;;9.23;8.30;;;;;;;22.02;72.06;95843.97;5087668;28;20818;-68
2023/08/26 03:21:28;;;;;;;11.47;9.20;;;;;;;22.06;72.06;95845.31;5087872;28;20241;-69
2023/08/26 03:23:54;;;;;;;12.20;9.67;;;;;;;22.04;72.04;95844.63;5087826;28;20177;-68
2023/08/26 03:26:19;;;;;;;10.27;9.27;;;;;;;22.03;71.84;95848.28;5087663;28;20418;-68
2023/08/26 03:28:45;;;;;;;10.57;9.67;;;;;;;22.02;71.95;95865.34;5087726;28;20192;-70
2023/08/26 03:31:10;;;;;;;10.73;9.47;;;;;;;22.04;71.79;95869.53;5087619;28;20177;-68
2023/08/26 03:33:36;;;;;;;11.27;8.70;;;;;;;21.93;72.29;95865.22;5087589;28;20187;-68
2023/08/26 03:36:05;;;;;;;13.47;9.90;;;;;;;21.85;72.65;95864.28;5087769;28;20178;-71
2023/08/26 03:38:32;;;;;;;16.17;10.67;;;;;;;21.84;72.54;95860.78;5087749;28;20592;-68
2023/08/26 03:40:57;;;;;;;12.73;10.07;;;;;;;21.93;72.16;95875.09;5087068;28;21015;-69
2023/08/26 03:43:23;;;;;;;10.70;9.63;;;;;;;21.85;72.13;95874.97;5087373;28;20419;-69
2023/08/26 03:45:48;;;;;;;11.80;8.63;;;;;;;21.87;71.88;95873.84;5087551;28;20596;-68
2023/08/26 03:48:14;;;;;;;9.57;8.57;;;;;;;21.96;71.79;95866.75;5087253;28;20165;-69
2023/08/26 03:50:57;;;;;;;13.23;9.37;;;;;;;21.71;72.72;95866.50;5086862;28;20296;-68
2023/08/26 03:53:23;;;;;;;10.03;8.00;;;;;;;21.69;72.92;95871.13;5087453;28;20173;-68
2023/08/26 03:55:49;;;;;;;10.13;9.03;;;;;;;21.75;72.83;95865.19;5087424;28;20435;-67
2023/08/26 03:58:14;;;;;;;11.77;8.70;;;;;;;21.68;73.02;95869.44;5087448;28;20889;-68
2023/08/26 04:00:40;;;;;;;20.30;10.10;;;;;;;21.62;73.37;95878.06;5086726;28;20209;-70
2023/08/26 04:03:06;;;;;;;17.13;9.63;;;;;;;21.80;73.38;95882.59;5087263;28;20180;-69
2023/08/26 04:05:32;;;;;;;10.60;9.57;;;;;;;21.74;73.73;95876.88;5087203;28;20422;-67
2023/08/26 04:07:59;;;;;;;12.07;10.30;;;;;;;21.69;74.09;95881.81;5087335;28;20181;-69
2023/08/26 04:10:24;;;;;;;16.73;10.87;;;;;;;21.61;74.65;95881.72;5086816;28;20569;-68
2023/08/26 04:12:50;;;;;;;14.63;9.53;;;;;;;21.73;74.54;95880.53;5087377;28;20403;-69
2023/08/26 04:15:15;;;;;;;12.57;9.27;;;;;;;21.78;73.94;95872.09;5087548;28;20181;-68
2023/08/26 04:17:41;;;;;;;18.17;10.33;;;;;;;21.79;73.78;95881.78;5087160;28;20188;-68
2023/08/26 04:20:08;;;;;;;13.10;9.80;;;;;;;21.61;74.75;95883.53;5086972;28;20177;-69
2023/08/26 04:22:33;;;;;;;15.33;9.43;;;;;;;21.69;74.61;95887.16;5087312;28;20412;-68
2023/08/26 04:24:59;;;;;;;13.10;10.07;;;;;;;21.71;74.46;95882.53;5088015;28;20427;-68
2023/08/26 04:27:24;;;;;;;15.00;9.80;;;;;;;21.75;74.16;95891.91;5091346;28;21034;-68
2023/08/26 04:29:49;;;;;;;38.13;12.40;;;;;;;21.82;73.33;95888.63;5090842;28;20184;-68
2023/08/26 04:32:15;;;;;;;21.90;11.80;;;;;;;21.76;73.53;95892.75;5090884;28;20192;-70
2023/08/26 04:34:40;;;;;;;25.07;11.47;;;;;;;21.77;73.41;95907.78;5091003;28;20268;-69
2023/08/26 04:37:06;;;;;;;16.97;9.87;;;;;;;21.85;73.31;95901.69;5090997;28;20200;-68
2023/08/26 04:39:31;;;;;;;11.20;10.00;;;;;;;21.84;72.97;95902.69;5090812;28;20181;-70
2023/08/26 04:41:56;;;;;;;21.83;10.27;;;;;;;21.80;73.09;95909.31;5091400;28;20197;-68
2023/08/26 04:44:22;;;;;;;11.63;8.70;;;;;;;21.77;72.84;95900.59;5091188;28;20165;-68
2023/08/26 04:46:47;;;;;;;18.93;9.30;;;;;;;21.75;72.75;95913.25;5090816;28;20260;-70
2023/08/26 04:49:12;;;;;;;14.30;9.20;;;;;;;21.74;72.95;95919.59;5090557;28;20176;-68
2023/08/26 04:51:38;;;;;;;29.70;10.97;;;;;;;21.80;72.47;95920.81;5090630;28;20574;-68
2023/08/26 04:54:04;;;;;;;18.90;9.20;;;;;;;21.74;72.71;95919.59;5090549;28;20169;-69
2023/08/26 04:56:30;;;;;;;12.40;9.00;;;;;;;21.68;73.27;95935.38;5090545;28;20178;-71
2023/08/26 04:58:56;;;;;;;19.27;10.73;;;;;;;21.78;73.41;95918.31;5090248;28;20418;-70
2023/08/26 05:01:21;;;;;;;15.43;9.87;;;;;;;21.78;73.18;95926.34;5090276;28;20213;-71
2023/08/26 05:03:47;;;;;;;24.13;10.60;;;;;;;21.75;73.03;95923.09;5090602;28;20177;-70
2023/08/26 05:06:13;;;;;;;17.40;10.97;;;;;;;21.73;72.96;95912.59;5090425;28;20231;-69
2023/08/26 05:08:38;;;;;;;17.53;9.10;;;;;;;21.61;73.70;95913.75;5090326;28;20443;-67
2023/08/26 05:11:05;;;;;;;19.40;8.70;;;;;;;21.69;73.41;95907.69;5090262;28;20185;-67
2023/08/26 05:13:30;;;;;;;46.43;15.27;;;;;;;21.70;73.28;95909.38;5090477;28;20538;-69
2023/08/26 05:15:56;;;;;;;13.33;8.23;;;;;;;21.74;72.84;95914.25;5090406;28;20411;-67
2023/08/26 05:18:21;;;;;;;15.33;8.23;;;;;;;21.78;72.79;95914.81;5089960;28;20838;-68
2023/08/26 05:20:47;;;;;;;20.30;9.37;;;;;;;21.76;72.46;95917.63;5089499;28;20266;-69
2023/08/26 05:23:14;;;;;;;25.43;8.40;;;;;;;21.84;71.92;95914.22;5089878;28;20204;-68
2023/08/26 05:25:40;;;;;;;18.27;7.73;;;;;;;21.86;71.49;95927.44;5090047;28;20176;-68
2023/08/26 05:28:06;;;;;;;16.23;8.13;;;;;;;21.80;71.49;95928.00;5089967;28;20412;-69
2023/08/26 05:30:31;;;;;;;15.83;8.90;;;;;;;21.71;72.26;95927.91;5089493;28;21010;-70
2023/08/26 05:32:56;;;;;;;10.33;8.13;;;;;;;21.53;73.00;95935.03;5089767;28;20245;-68
2023/08/26 05:35:22;;;;;;;14.87;8.70;;;;;;;21.53;72.92;95927.00;5089691;28;20616;-69
2023/08/26 05:37:47;;;;;;;27.50;10.10;;;;;;;21.50;73.45;95929.97;5088893;28;20181;-69
2023/08/26 05:40:15;;;;;;;31.67;9.40;;;;;;;21.61;72.94;95929.78;5089352;28;20174;-68
2023/08/26 05:42:41;;;;;;;27.87;9.83;;;;;;;21.55;72.96;95920.53;5089835;28;20173;-68
2023/08/26 05:45:07;;;;;;;15.83;9.13;;;;;;;21.58;72.88;95930.06;5089869;28;20439;-70
2023/08/26 05:47:33;;;;;;;55.67;12.73;;;;;;;21.68;73.01;95936.22;5089361;28;20415;-68
2023/08/26 05:49:59;;;;;;;56.40;12.63;;;;;;;21.77;72.90;95935.31;5089523;28;20419;-69
2023/08/26 05:52:24;;;;;;;11.33;8.53;;;;;;;21.62;73.61;95934.16;5089621;28;20197;-69
2023/08/26 05:54:50;;;;;;;28.03;9.70;;;;;;;21.59;73.87;95934.44;5089841;28;20178;-69
2023/08/26 05:57:15;;;;;;;13.20;8.63;;;;;;;21.59;73.76;95934.44;5089528;28;20189;-68
2023/08/26 05:59:41;;;;;;;14.03;9.30;;;;;;;21.70;73.53;95947.59;5088966;28;20186;-70
2023/08/26 06:02:06;;;;;;;12.77;9.00;;;;;;;21.77;73.52;95939.84;5089239;28;20229;-69
2023/08/26 06:04:31;;;;;;;13.83;8.97;;;;;;;21.81;73.31;95932.38;5089512;28;20170;-67
2023/08/26 06:07:00;;;;;;;26.97;10.53;;;;;;;22.04;72.33;95941.69;5089377;28;20223;-69
2023/08/26 06:09:26;;;;;;;30.40;10.80;;;;;;;21.93;72.63;95934.69;5089120;28;20176;-68
2023/08/26 06:11:51;;;;;;;17.10;9.37;;;;;;;22.04;72.25;95932.78;5089625;28;20423;-68
2023/08/26 06:14:16;;;;;;;17.93;10.30;;;;;;;22.11;71.57;95929.41;5089143;28;20178;-70
2023/08/26 06:16:42;;;;;;;10.03;7.80;;;;;;;22.22;70.43;95928.34;5088734;28;20213;-69
2023/08/26 06:19:08;;;;;;;13.87;8.13;;;;;;;22.48;69.61;95936.47;5088523;28;20181;-69
2023/08/26 06:21:34;;;;;;;27.90;9.33;;;;;;;22.57;69.60;95946.25;5088867;28;20667;-68
2023/08/26 06:23:59;;;;;;;12.80;8.33;;;;;;;22.43;69.54;95943.28;5089196;28;20519;-70
2023/08/26 06:26:25;;;;;;;25.23;8.40;;;;;;;22.47;69.99;95945.50;5089297;28;20170;-68
2023/08/26 06:28:51;;;;;;;17.47;8.50;;;;;;;22.42;69.86;95945.13;5088968;28;20231;-69
2023/08/26 06:31:16;;;;;;;79.43;13.50;;;;;;;22.43;70.06;95949.47;5089128;28;20659;-68
2023/08/26 06:33:43;;;;;;;26.67;9.00;;;;;;;22.49;69.83;95956.03;5088759;28;20444;-69
2023/08/26 06:36:08;;;;;;;14.60;7.53;;;;;;;22.39;70.20;95953.44;5088789;28;20185;-68
2023/08/26 06:38:34;;;;;;;17.03;9.10;;;;;;;22.37;69.72;95958.06;5088543;28;20774;-69
2023/08/26 06:40:59;;;;;;;29.07;9.20;;;;;;;22.34;69.25;95956.56;5088066;28;20205;-69
2023/08/26 06:43:24;;;;;;;16.67;7.90;;;;;;;22.36;69.19;95957.25;5087091;28;20173;-69
2023/08/26 06:45:50;;;;;;;25.03;8.90;;;;;;;22.41;69.25;95957.63;5088370;28;20214;-71
2023/08/26 06:48:16;;;;;;;9.47;6.90;;;;;;;22.43;69.04;95964.66;5088288;28;20264;-67
2023/08/26 06:50:46;;;;;;;9.60;6.67;;;;;;;22.41;68.97;95959.47;5088466;28;20185;-69
2023/08/26 06:53:11;;;;;;;10.30;6.60;;;;;;;22.37;68.72;95952.72;5089488;28;20414;-69
2023/08/26 06:55:37;;;;;;;11.47;7.40;;;;;;;22.32;69.77;95957.69;5089504;28;20412;-70
2023/08/26 06:58:02;;;;;;;7.63;6.93;;;;;;;22.18;70.26;95957.19;5103257;28;20195;-69
2023/08/26 07:00:28;;;;;;;11.57;7.70;;;;;;;22.30;69.94;95952.53;5101087;28;20289;-70
2023/08/26 07:02:53;;;;;;;10.50;7.50;;;;;;;22.59;69.29;95944.28;5095791;28;20173;-70
2023/08/26 07:05:18;;;;;;;13.90;6.97;;;;;;;23.42;66.54;95946.63;5094084;28;20181;-72
2023/08/26 07:07:44;;;;;;;19.40;7.50;;;;;;;24.39;62.75;95947.22;5092324;28;20623;-70
2023/08/26 07:10:10;;;;;;;19.40;7.57;;;;;;;24.69;60.89;95937.75;5088893;28;20795;-69
2023/08/26 07:12:36;;;;;;;19.03;7.27;;;;;;;25.26;58.45;95944.16;5088248;28;20181;-67
2023/08/26 07:15:03;;;;;;;16.97;6.90;;;;;;;25.73;56.66;95938.84;5088160;28;20173;-68
2023/08/26 07:17:28;;;;;;;18.03;6.50;;;;;;;26.53;54.76;95928.94;5087771;28;20515;-69
2023/08/26 07:19:54;;;;;;;19.57;7.77;;;;;;;26.73;53.96;95929.31;5087541;28;20503;-69
2023/08/26 07:22:19;;;;;;;27.13;6.77;;;;;;;26.98;52.94;95928.13;5087798;28;20254;-70
2023/08/26 07:24:45;;;;;;;44.73;9.30;;;;;;;26.61;53.42;95923.53;5087822;28;20245;-70
2023/08/26 07:27:10;;;;;;;42.40;7.67;;;;;;;26.13;53.26;95926.31;5089107;28;20182;-67
2023/08/26 07:29:37;;;;;;;15.77;5.70;;;;;;;26.18;53.13;95928.47;5089406;28;20174;-70
2023/08/26 07:32:03;;;;;;;16.40;5.10;;;;;;;26.34;51.17;95920.31;5087687;28;20189;-70
2023/08/26 07:34:28;;;;;;;11.47;4.50;;;;;;;25.77;50.29;95928.59;5087703;28;21066;-69
2023/08/26 07:36:53;;;;;;;38.93;6.20;;;;;;;24.89;54.44;95940.94;5087750;28;20173;-70
2023/08/26 07:39:20;;;;;;;21.83;5.90;;;;;;;24.72;54.60;95940.09;5087388;28;20176;-70
2023/08/26 07:41:46;;;;;;;17.63;5.13;;;;;;;24.65;55.51;95938.25;5087502;28;20848;-68
2023/08/26 07:44:12;;;;;;;14.63;4.93;;;;;;;24.53;56.66;95940.41;5087678;28;20494;-69
2023/08/26 07:46:37;;;;;;;15.53;5.07;;;;;;;24.20;56.80;95944.84;5087683;28;20170;-70
2023/08/26 07:49:03;;;;;;;42.30;7.53;;;;;;;24.18;56.67;95947.66;5087786;28;20177;-69
2023/08/26 07:51:28;;;;;;;26.00;5.40;;;;;;;24.08;57.04;95946.97;5087908;28;20182;-69
2023/08/26 07:53:54;;;;;;;17.87;4.73;;;;;;;24.15;57.76;95944.50;5087822;28;20177;-71
2023/08/26 07:56:19;;;;;;;8.53;4.33;;;;;;;24.14;57.81;95945.47;5087592;28;20188;-70
2023/08/26 07:58:44;;;;;;;9.63;4.47;;;;;;;24.04;57.94;95942.94;5087326;28;20177;-71
2023/08/26 08:01:10;;;;;;;7.00;4.40;;;;;;;24.03;58.15;95947.47;5089903;28;20209;-70
2023/08/26 08:03:36;;;;;;;8.03;5.00;;;;;;;23.92;58.90;95946.91;5091936;28;20169;-68
2023/08/26 08:06:01;;;;;;;12.80;5.47;;;;;;;23.88;58.92;95952.59;5092138;28;20169;-69
2023/08/26 08:08:26;;;;;;;19.37;6.27;;;;;;;23.84;57.00;95951.22;5092212;28;20169;-69
2023/08/26 08:10:52;;;;;;;12.80;4.90;;;;;;;23.86;56.33;95949.25;5091970;28;20200;-71
2023/08/26 08:13:17;;;;;;;8.10;3.80;;;;;;;23.80;55.86;95944.50;5092058;28;20223;-68
2023/08/26 08:15:43;;;;;;;7.90;4.77;;;;;;;23.88;56.13;95935.66;5092185;28;20184;-70
2023/08/26 08:18:08;;;;;;;14.83;4.83;;;;;;;23.88;56.30;95944.56;5091552;28;20669;-70
2023/08/26 08:20:34;;;;;;;8.60;4.03;;;;;;;23.54;55.76;95944.50;5091606;28;20690;-70
2023/08/26 08:22:59;;;;;;;51.67;7.80;;;;;;;23.84;55.53;95937.84;5091712;28;20178;-70
2023/08/26 08:25:24;;;;;;;26.77;5.47;;;;;;;23.95;55.47;95928.66;5091657;28;20460;-70
2023/08/26 08:27:50;;;;;;;22.57;7.07;;;;;;;24.04;55.63;95935.72;5091599;28;20651;-69
2023/08/26 08:30:16;;;;;;;12.83;4.33;;;;;;;24.40;55.48;95932.84;5091123;28;20273;-70
2023/08/26 08:32:41;;;;;;;10.53;7.87;;;;;;;25.45;52.24;95925.00;5091771;28;20173;-71
2023/08/26 08:35:07;;;;;;;17.80;5.10;;;;;;;25.59;51.03;95925.31;5091367;28;20523;-69
2023/08/26 08:37:33;;;;;;;10.33;4.03;;;;;;;26.14;49.43;95919.91;5091044;28;20169;-69
2023/08/26 08:39:59;;;;;;;11.63;4.70;;;;;;;26.10;48.26;95913.22;5090807;28;20888;-70
2023/08/26 08:42:25;;;;;;;9.67;4.70;;;;;;;26.60;48.17;95903.84;5090778;28;20201;-70
2023/08/26 08:44:51;;;;;;;33.27;6.23;;;;;;;27.07;46.13;95893.84;5091038;28;20284;-68
2023/08/26 08:47:16;;;;;;;10.10;4.23;;;;;;;27.09;45.61;95883.75;5091037;28;20243;-68
2023/08/26 08:49:43;;;;;;;10.53;4.00;;;;;;;27.17;45.37;95883.69;5090460;28;20174;-70
2023/08/26 08:52:10;;;;;;;8.63;4.53;;;;;;;26.61;46.22;95892.06;5090838;28;20242;-70
2023/08/26 08:54:35;;;;;;;17.40;6.20;;;;;;;27.03;45.89;95892.56;5090838;28;20415;-69
2023/08/26 08:57:06;;;;;;;9.60;4.67;;;;;;;27.54;44.59;95898.13;5090906;28;20778;-70
2023/08/26 08:59:36;;;;;;;12.80;4.73;;;;;;;27.77;44.41;95911.53;5090908;28;20571;-69
2023/08/26 09:02:03;;;;;;;14.90;4.90;;;;;;;28.26;43.58;95908.25;5090479;28;20459;-68
2023/08/26 09:04:29;;;;;;;10.53;3.87;;;;;;;28.47;42.53;95912.06;5090541;28;20434;-70
2023/08/26 09:06:55;;;;;;;18.10;5.43;;;;;;;28.75;42.06;95909.44;5090399;28;20774;-72
2023/08/26 09:09:21;;;;;;;23.57;5.50;;;;;;;28.42;43.00;95915.28;5090193;28;20953;-69
2023/08/26 09:11:48;;;;;;;7.20;4.50;;;;;;;27.33;44.45;95909.66;5090208;28;20208;-68
2023/08/26 09:14:13;;;;;;;10.23;4.40;;;;;;;27.04;45.40;95913.91;5090403;28;20411;-70
2023/08/26 09:16:41;;;;;;;9.87;4.33;;;;;;;26.75;46.57;95909.28;5090245;28;20783;-69
2023/08/26 09:19:09;;;;;;;8.40;4.90;;;;;;;25.90;48.41;95917.31;5090427;28;20291;-69
2023/08/26 09:21:40;;;;;;;10.03;4.57;;;;;;;25.70;49.03;95922.22;5090538;28;20463;-70
2023/08/26 09:24:11;;;;;;;8.83;4.20;;;;;;;25.48;49.64;95918.44;5088966;28;20407;-69
2023/08/26 09:26:36;;;;;;;47.07;9.03;;;;;;;25.73;48.84;95921.91;5090479;28;20407;-70
2023/08/26 09:29:11;;;;;;;15.73;6.03;;;;;;;25.94;48.41;95906.06;5089992;28;20461;-70
2023/08/26 09:31:45;;;;;;;11.00;4.47;;;;;;;26.44;47.16;95892.34;5090422;28;20569;-70
2023/08/26 09:34:10;;;;;;;7.30;3.73;;;;;;;26.77;46.38;95888.41;5090269;28;20503;-69
2023/08/26 09:36:39;;;;;;;6.20;4.13;;;;;;;26.63;47.22;95889.19;5090571;28;20448;-68
2023/08/26 09:39:12;;;;;;;8.80;4.33;;;;;;;25.78;49.13;95877.34;5090030;28;20181;-69
2023/08/26 09:41:38;;;;;;;5.13;3.87;;;;;;;25.40;50.33;95870.13;5089871;28;20474;-71
2023/08/26 09:44:04;;;;;;;7.70;4.50;;;;;;;24.18;53.55;95866.41;5090049;28;20404;-72
2023/08/26 09:46:35;;;;;;;10.30;4.80;;;;;;;24.35;53.83;95864.59;5089904;28;20631;-71
2023/08/26 09:49:02;;;;;;;10.70;4.87;;;;;;;24.98;52.14;95872.00;5089919;28;20407;-69
2023/08/26 09:51:30;;;;;;;6.57;4.47;;;;;;;25.52;50.12;95861.50;5090415;28;20434;-68
2023/08/26 09:53:56;;;;;;;8.70;5.00;;;;;;;24.98;51.67;95868.47;5090086;28;20905;-68
2023/08/26 09:56:24;;;;;;;6.10;4.30;;;;;;;25.07;51.47;95854.88;5089936;28;20423;-69
2023/08/26 09:58:53;;;;;;;7.30;4.57;;;;;;;25.98;49.84;95842.00;5089460;28;20908;-69
2023/08/26 10:01:20;;;;;;;12.13;4.63;;;;;;;26.23;48.81;95829.25;5089333;28;20459;-70
2023/08/26 10:04:08;;;;;;;8.73;5.10;;;;;;;25.94;49.86;95844.22;5089795;28;20430;-67
2023/08/26 10:06:39;;;;;;;10.07;4.70;;;;;;;25.35;51.26;95846.47;5089672;28;20889;-70
2023/08/26 10:09:15;;;;;;;37.63;6.67;;;;;;;25.98;49.22;95834.78;5089318;28;20460;-68
2023/08/26 10:11:43;;;;;;;11.10;5.00;;;;;;;25.42;50.88;95833.16;5089435;28;20430;-69
2023/08/26 10:14:13;;;;;;;10.73;4.93;;;;;;;25.29;50.84;95837.22;5089554;28;20416;-69
2023/08/26 10:16:41;;;;;;;10.63;4.87;;;;;;;25.26;50.44;95840.25;5088924;28;20418;-70
2023/08/26 10:19:07;;;;;;;9.00;5.20;;;;;;;24.85;51.32;95826.03;5088599;28;20427;-70
2023/08/26 10:21:34;;;;;;;10.07;4.53;;;;;;;24.58;52.22;95825.41;5088965;28;20455;-68
2023/08/26 10:24:00;;;;;;;6.83;4.47;;;;;;;24.41;53.65;95829.91;5088210;28;20407;-69
2023/08/26 10:26:27;;;;;;;8.50;4.70;;;;;;;24.60;53.08;95838.66;5088983;28;20415;-69
2023/08/26 10:28:55;;;;;;;9.00;5.90;;;;;;;24.78;52.55;95828.59;5088454;28;20407;-70
2023/08/26 10:31:20;;;;;;;11.83;5.60;;;;;;;24.76;52.46;95844.03;5088719;28;20452;-71
2023/08/26 10:34:09;;;;;;;11.67;4.83;;;;;;;25.12;51.83;95855.19;5088554;28;20458;-70
2023/08/26 10:36:39;;;;;;;9.97;4.80;;;;;;;25.22;51.35;95859.56;5087909;28;20185;-70
2023/08/26 10:39:18;;;;;;;9.90;4.53;;;;;;;24.56;52.35;95848.03;5088424;28;20419;-68
2023/08/26 10:42:11;;;;;;;6.60;4.20;;;;;;;24.58;53.12;95846.88;5088244;28;20467;-71
2023/08/26 10:44:38;;;;;;;13.73;5.27;;;;;;;24.78;52.48;95846.50;5088403;28;20422;-70
2023/08/26 10:47:03;;;;;;;19.50;6.07;;;;;;;24.66;53.40;95854.94;5088873;28;20816;-68
2023/08/26 10:49:29;;;;;;;6.57;4.13;;;;;;;24.55;53.60;95843.69;5088176;28;20412;-71
2023/08/26 10:52:09;;;;;;;15.80;5.20;;;;;;;24.48;53.78;95847.03;5088580;28;20288;-70
2023/08/26 10:54:35;;;;;;;33.00;7.70;;;;;;;25.08;52.46;95853.03;5088642;28;20213;-69
2023/08/26 10:57:08;;;;;;;17.70;5.70;;;;;;;25.50;51.13;95836.66;5088653;28;20524;-69
2023/08/26 10:59:35;;;;;;;5.77;3.83;;;;;;;25.56;50.60;95843.19;5088362;28;20658;-69
2023/08/26 11:02:04;;;;;;;6.00;4.60;;;;;;;25.37;50.99;95830.16;5088310;28;20474;-68
2023/08/26 11:04:31;;;;;;;8.93;5.90;;;;;;;25.66;51.43;95818.81;5088200;28;20407;-68
2023/08/26 11:06:57;;;;;;;10.90;5.60;;;;;;;25.97;49.76;95816.97;5088332;28;20409;-70
2023/08/26 11:09:22;;;;;;;7.50;4.47;;;;;;;25.82;49.78;95813.34;5087790;28;20912;-70
2023/08/26 11:11:48;;;;;;;6.77;4.40;;;;;;;25.59;50.43;95813.28;5088205;28;20295;-71
2023/08/26 11:14:13;;;;;;;30.53;7.43;;;;;;;25.52;50.19;95810.44;5088364;28;20216;-69
2023/08/26 11:16:39;;;;;;;40.13;10.10;;;;;;;25.50;50.46;95803.59;5088072;28;20165;-71
2023/08/26 11:19:06;;;;;;;15.17;5.63;;;;;;;25.65;50.35;95806.34;5087763;28;20254;-70
2023/08/26 11:21:37;;;;;;;10.93;6.30;;;;;;;25.72;50.57;95796.56;5087757;28;20451;-69